sensor_id;sensor_type;location;lat;lon;timestamp;P1;durP1;ratioP1;P2;durP2;ratioP2
65373;SDS011;52070;53.760;9.678;2023-04-15T00:02:15;5.43;;;3.85;;
65373;SDS011;52070;53.760;9.678;2023-04-15T00:04:44;5.45;;;3.75;;
65373;SDS011;52070;53.760;9.678;2023-04-15T00:07:11;5.97;;;3.70;;
65373;SDS011;52070;53.760;9.678;2023-04-15T00:09:40;8.10;;;3.70;;
65373;SDS011;52070;53.760;9.678;2023-04-15T00:12:09;4.97;;;3.10;;
65373;SDS011;52070;53.760;9.678;2023-04-15T00:14:36;4.20;;;3.40;;
65373;SDS011;52070;53.760;9.678;2023-04-15T00:17:03;5.38;;;3.35;;
65373;SDS011;52070;53.760;9.678;2023-04-15T00:19:30;5.60;;;3.95;;
65373;SDS011;52070;53.760;9.678;2023-04-15T00:21:58;4.57;;;3.28;;
65373;SDS011;52070;53.760;9.678;2023-04-15T00:24:25;5.35;;;3.42;;
65373;SDS011;52070;53.760;9.678;2023-04-15T00:26:54;9.00;;;3.75;;
65373;SDS011;52070;53.760;9.678;2023-04-15T00:29:21;7.38;;;3.88;;
65373;SDS011;52070;53.760;9.678;2023-04-15T00:31:48;6.47;;;4.25;;
65373;SDS011;52070;53.760;9.678;2023-04-15T00:34:15;5.47;;;3.95;;
65373;SDS011;52070;53.760;9.678;2023-04-15T00:36:42;5.72;;;3.90;;
65373;SDS011;52070;53.760;9.678;2023-04-15T00:39:09;6.78;;;3.92;;
65373;SDS011;52070;53.760;9.678;2023-04-15T00:41:36;6.88;;;4.40;;
65373;SDS011;52070;53.760;9.678;2023-04-15T00:44:06;7.55;;;4.22;;
65373;SDS011;52070;53.760;9.678;2023-04-15T00:46:34;7.00;;;4.68;;
65373;SDS011;52070;53.760;9.678;2023-04-15T00:49:02;5.22;;;4.00;;
65373;SDS011;52070;53.760;9.678;2023-04-15T00:51:30;6.80;;;4.82;;
65373;SDS011;52070;53.760;9.678;2023-04-15T00:54:00;6.45;;;4.55;;
65373;SDS011;52070;53.760;9.678;2023-04-15T00:56:28;7.72;;;4.30;;
65373;SDS011;52070;53.760;9.678;2023-04-15T00:58:56;7.63;;;4.50;;
65373;SDS011;52070;53.760;9.678;2023-04-15T01:01:25;6.43;;;5.00;;
65373;SDS011;52070;53.760;9.678;2023-04-15T01:03:54;8.70;;;5.05;;
65373;SDS011;52070;53.760;9.678;2023-04-15T01:06:22;9.25;;;5.07;;
65373;SDS011;52070;53.760;9.678;2023-04-15T01:08:49;8.18;;;5.20;;
65373;SDS011;52070;53.760;9.678;2023-04-15T01:11:16;9.30;;;5.72;;
65373;SDS011;52070;53.760;9.678;2023-04-15T01:13:43;11.95;;;5.90;;
65373;SDS011;52070;53.760;9.678;2023-04-15T01:16:10;8.02;;;5.93;;
65373;SDS011;52070;53.760;9.678;2023-04-15T01:18:38;9.75;;;5.82;;
65373;SDS011;52070;53.760;9.678;2023-04-15T01:21:06;8.20;;;5.53;;
65373;SDS011;52070;53.760;9.678;2023-04-15T01:23:34;8.05;;;5.30;;
65373;SDS011;52070;53.760;9.678;2023-04-15T01:26:04;9.43;;;5.60;;
65373;SDS011;52070;53.760;9.678;2023-04-15T01:28:33;8.10;;;5.60;;
65373;SDS011;52070;53.760;9.678;2023-04-15T01:31:06;9.43;;;6.18;;
65373;SDS011;52070;53.760;9.678;2023-04-15T01:33:35;8.85;;;6.10;;
65373;SDS011;52070;53.760;9.678;2023-04-15T01:36:02;8.88;;;5.70;;
65373;SDS011;52070;53.760;9.678;2023-04-15T01:38:30;9.05;;;5.78;;
65373;SDS011;52070;53.760;9.678;2023-04-15T01:40:57;12.27;;;5.97;;
65373;SDS011;52070;53.760;9.678;2023-04-15T01:43:26;10.63;;;5.93;;
65373;SDS011;52070;53.760;9.678;2023-04-15T01:45:53;8.70;;;6.20;;
65373;SDS011;52070;53.760;9.678;2023-04-15T01:48:21;8.65;;;6.13;;
65373;SDS011;52070;53.760;9.678;2023-04-15T01:50:48;9.10;;;6.63;;
65373;SDS011;52070;53.760;9.678;2023-04-15T01:53:16;9.60;;;6.47;;
65373;SDS011;52070;53.760;9.678;2023-04-15T01:55:43;12.82;;;6.32;;
65373;SDS011;52070;53.760;9.678;2023-04-15T01:58:10;9.98;;;6.40;;
65373;SDS011;52070;53.760;9.678;2023-04-15T02:00:38;11.25;;;6.50;;
65373;SDS011;52070;53.760;9.678;2023-04-15T02:03:05;9.02;;;6.10;;
65373;SDS011;52070;53.760;9.678;2023-04-15T02:05:32;11.32;;;6.75;;
65373;SDS011;52070;53.760;9.678;2023-04-15T02:07:59;12.15;;;6.47;;
65373;SDS011;52070;53.760;9.678;2023-04-15T02:10:26;11.05;;;6.47;;
65373;SDS011;52070;53.760;9.678;2023-04-15T02:12:53;11.05;;;6.72;;
65373;SDS011;52070;53.760;9.678;2023-04-15T02:15:20;10.65;;;6.63;;
65373;SDS011;52070;53.760;9.678;2023-04-15T02:17:48;10.40;;;6.53;;
65373;SDS011;52070;53.760;9.678;2023-04-15T02:20:17;11.60;;;7.00;;
65373;SDS011;52070;53.760;9.678;2023-04-15T02:22:45;10.80;;;6.70;;
65373;SDS011;52070;53.760;9.678;2023-04-15T02:25:12;10.80;;;6.75;;
65373;SDS011;52070;53.760;9.678;2023-04-15T02:27:41;9.50;;;6.35;;
65373;SDS011;52070;53.760;9.678;2023-04-15T02:30:08;10.65;;;6.70;;
65373;SDS011;52070;53.760;9.678;2023-04-15T02:32:36;11.00;;;6.95;;
65373;SDS011;52070;53.760;9.678;2023-04-15T02:35:05;11.73;;;6.63;;
65373;SDS011;52070;53.760;9.678;2023-04-15T02:37:34;10.07;;;6.40;;
65373;SDS011;52070;53.760;9.678;2023-04-15T02:40:06;12.15;;;6.65;;
65373;SDS011;52070;53.760;9.678;2023-04-15T02:42:34;10.07;;;6.68;;
65373;SDS011;52070;53.760;9.678;2023-04-15T02:45:01;10.73;;;6.60;;
65373;SDS011;52070;53.760;9.678;2023-04-15T02:47:28;10.80;;;6.70;;
65373;SDS011;52070;53.760;9.678;2023-04-15T02:49:55;11.35;;;6.90;;
65373;SDS011;52070;53.760;9.678;2023-04-15T02:52:26;10.55;;;6.18;;
65373;SDS011;52070;53.760;9.678;2023-04-15T02:54:53;12.20;;;6.97;;
65373;SDS011;52070;53.760;9.678;2023-04-15T02:57:22;10.45;;;7.05;;
65373;SDS011;52070;53.760;9.678;2023-04-15T02:59:49;11.88;;;7.03;;
65373;SDS011;52070;53.760;9.678;2023-04-15T03:02:16;10.07;;;6.30;;
65373;SDS011;52070;53.760;9.678;2023-04-15T03:04:43;11.32;;;6.93;;
65373;SDS011;52070;53.760;9.678;2023-04-15T03:07:10;11.00;;;6.78;;
65373;SDS011;52070;53.760;9.678;2023-04-15T03:09:38;14.57;;;6.88;;
65373;SDS011;52070;53.760;9.678;2023-04-15T03:12:05;12.82;;;7.32;;
65373;SDS011;52070;53.760;9.678;2023-04-15T03:14:32;11.38;;;6.50;;
65373;SDS011;52070;53.760;9.678;2023-04-15T03:17:01;11.38;;;7.10;;
65373;SDS011;52070;53.760;9.678;2023-04-15T03:19:27;14.18;;;7.57;;
65373;SDS011;52070;53.760;9.678;2023-04-15T03:21:54;12.80;;;7.05;;
65373;SDS011;52070;53.760;9.678;2023-04-15T03:24:21;12.00;;;6.40;;
65373;SDS011;52070;53.760;9.678;2023-04-15T03:26:50;14.70;;;8.20;;
65373;SDS011;52070;53.760;9.678;2023-04-15T03:29:17;12.88;;;7.93;;
65373;SDS011;52070;53.760;9.678;2023-04-15T03:31:44;13.82;;;8.02;;
65373;SDS011;52070;53.760;9.678;2023-04-15T03:34:11;16.38;;;8.30;;
65373;SDS011;52070;53.760;9.678;2023-04-15T03:36:38;15.57;;;8.18;;
65373;SDS011;52070;53.760;9.678;2023-04-15T03:39:05;16.60;;;8.02;;
65373;SDS011;52070;53.760;9.678;2023-04-15T03:41:32;15.70;;;8.60;;
65373;SDS011;52070;53.760;9.678;2023-04-15T03:44:00;15.80;;;8.82;;
65373;SDS011;52070;53.760;9.678;2023-04-15T03:46:27;17.85;;;9.02;;
65373;SDS011;52070;53.760;9.678;2023-04-15T03:48:54;17.75;;;9.30;;
65373;SDS011;52070;53.760;9.678;2023-04-15T03:51:21;19.08;;;9.52;;
65373;SDS011;52070;53.760;9.678;2023-04-15T03:53:48;18.30;;;9.98;;
65373;SDS011;52070;53.760;9.678;2023-04-15T03:56:15;19.40;;;10.23;;
65373;SDS011;52070;53.760;9.678;2023-04-15T03:58:42;21.88;;;10.55;;
65373;SDS011;52070;53.760;9.678;2023-04-15T04:01:11;21.55;;;10.85;;
65373;SDS011;52070;53.760;9.678;2023-04-15T04:03:38;21.90;;;10.93;;
65373;SDS011;52070;53.760;9.678;2023-04-15T04:06:05;23.63;;;11.55;;
65373;SDS011;52070;53.760;9.678;2023-04-15T04:08:32;23.05;;;11.07;;
65373;SDS011;52070;53.760;9.678;2023-04-15T04:10:59;24.00;;;11.57;;
65373;SDS011;52070;53.760;9.678;2023-04-15T04:13:26;23.58;;;12.10;;
65373;SDS011;52070;53.760;9.678;2023-04-15T04:15:53;22.30;;;11.82;;
65373;SDS011;52070;53.760;9.678;2023-04-15T04:18:21;26.38;;;12.20;;
65373;SDS011;52070;53.760;9.678;2023-04-15T04:20:48;25.63;;;12.10;;
65373;SDS011;52070;53.760;9.678;2023-04-15T04:23:15;26.38;;;12.60;;
65373;SDS011;52070;53.760;9.678;2023-04-15T04:25:42;26.20;;;11.95;;
65373;SDS011;52070;53.760;9.678;2023-04-15T04:28:09;25.67;;;13.05;;
65373;SDS011;52070;53.760;9.678;2023-04-15T04:30:36;24.80;;;12.40;;
65373;SDS011;52070;53.760;9.678;2023-04-15T04:33:03;23.80;;;12.38;;
65373;SDS011;52070;53.760;9.678;2023-04-15T04:35:31;26.98;;;12.40;;
65373;SDS011;52070;53.760;9.678;2023-04-15T04:38:02;24.88;;;12.48;;
65373;SDS011;52070;53.760;9.678;2023-04-15T04:40:29;22.33;;;11.90;;
65373;SDS011;52070;53.760;9.678;2023-04-15T04:42:56;30.15;;;13.73;;
65373;SDS011;52070;53.760;9.678;2023-04-15T04:45:23;23.95;;;12.88;;
65373;SDS011;52070;53.760;9.678;2023-04-15T04:47:50;25.30;;;13.35;;
65373;SDS011;52070;53.760;9.678;2023-04-15T04:50:17;32.10;;;14.15;;
65373;SDS011;52070;53.760;9.678;2023-04-15T04:52:45;27.42;;;13.32;;
65373;SDS011;52070;53.760;9.678;2023-04-15T04:55:12;31.13;;;13.90;;
65373;SDS011;52070;53.760;9.678;2023-04-15T04:57:39;34.97;;;15.00;;
65373;SDS011;52070;53.760;9.678;2023-04-15T05:00:07;34.30;;;16.10;;
65373;SDS011;52070;53.760;9.678;2023-04-15T05:02:34;31.95;;;15.80;;
65373;SDS011;52070;53.760;9.678;2023-04-15T05:05:01;35.20;;;16.92;;
65373;SDS011;52070;53.760;9.678;2023-04-15T05:07:28;34.53;;;15.98;;
65373;SDS011;52070;53.760;9.678;2023-04-15T05:09:57;35.00;;;16.35;;
65373;SDS011;52070;53.760;9.678;2023-04-15T05:12:24;36.05;;;17.95;;
65373;SDS011;52070;53.760;9.678;2023-04-15T05:14:51;36.88;;;17.55;;
65373;SDS011;52070;53.760;9.678;2023-04-15T05:17:18;36.10;;;17.75;;
65373;SDS011;52070;53.760;9.678;2023-04-15T05:19:45;40.08;;;18.02;;
65373;SDS011;52070;53.760;9.678;2023-04-15T05:22:12;39.85;;;17.77;;
65373;SDS011;52070;53.760;9.678;2023-04-15T05:24:39;37.65;;;17.95;;
65373;SDS011;52070;53.760;9.678;2023-04-15T05:27:07;43.47;;;19.45;;
65373;SDS011;52070;53.760;9.678;2023-04-15T05:29:36;42.10;;;19.02;;
65373;SDS011;52070;53.760;9.678;2023-04-15T05:32:03;40.55;;;18.25;;
65373;SDS011;52070;53.760;9.678;2023-04-15T05:34:30;45.40;;;19.10;;
65373;SDS011;52070;53.760;9.678;2023-04-15T05:36:57;40.92;;;19.30;;
65373;SDS011;52070;53.760;9.678;2023-04-15T05:39:24;46.33;;;19.77;;
65373;SDS011;52070;53.760;9.678;2023-04-15T05:41:51;42.15;;;19.52;;
65373;SDS011;52070;53.760;9.678;2023-04-15T05:44:19;47.47;;;19.63;;
65373;SDS011;52070;53.760;9.678;2023-04-15T05:46:46;42.75;;;19.20;;
65373;SDS011;52070;53.760;9.678;2023-04-15T05:49:13;43.85;;;19.35;;
65373;SDS011;52070;53.760;9.678;2023-04-15T05:51:40;44.03;;;20.13;;
65373;SDS011;52070;53.760;9.678;2023-04-15T05:54:07;44.42;;;20.35;;
65373;SDS011;52070;53.760;9.678;2023-04-15T05:56:34;44.40;;;19.90;;
65373;SDS011;52070;53.760;9.678;2023-04-15T05:59:01;43.88;;;20.08;;
65373;SDS011;52070;53.760;9.678;2023-04-15T06:01:29;44.42;;;21.08;;
65373;SDS011;52070;53.760;9.678;2023-04-15T06:03:56;42.33;;;20.33;;
65373;SDS011;52070;53.760;9.678;2023-04-15T06:06:23;43.55;;;20.17;;
65373;SDS011;52070;53.760;9.678;2023-04-15T06:08:51;48.42;;;21.02;;
65373;SDS011;52070;53.760;9.678;2023-04-15T06:11:20;40.50;;;20.15;;
65373;SDS011;52070;53.760;9.678;2023-04-15T06:13:47;46.20;;;20.92;;
65373;SDS011;52070;53.760;9.678;2023-04-15T06:16:14;49.35;;;20.13;;
65373;SDS011;52070;53.760;9.678;2023-04-15T06:18:43;39.95;;;20.27;;
65373;SDS011;52070;53.760;9.678;2023-04-15T06:21:10;42.53;;;20.58;;
65373;SDS011;52070;53.760;9.678;2023-04-15T06:23:37;42.67;;;20.85;;
65373;SDS011;52070;53.760;9.678;2023-04-15T06:26:05;44.08;;;21.23;;
65373;SDS011;52070;53.760;9.678;2023-04-15T06:28:32;42.53;;;20.33;;
65373;SDS011;52070;53.760;9.678;2023-04-15T06:30:59;43.10;;;21.02;;
65373;SDS011;52070;53.760;9.678;2023-04-15T06:33:27;44.05;;;20.40;;
65373;SDS011;52070;53.760;9.678;2023-04-15T06:35:55;49.22;;;21.77;;
65373;SDS011;52070;53.760;9.678;2023-04-15T06:38:22;43.17;;;20.92;;
65373;SDS011;52070;53.760;9.678;2023-04-15T06:40:49;43.85;;;21.02;;
65373;SDS011;52070;53.760;9.678;2023-04-15T06:43:16;42.20;;;21.48;;
65373;SDS011;52070;53.760;9.678;2023-04-15T06:45:44;46.63;;;21.27;;
65373;SDS011;52070;53.760;9.678;2023-04-15T06:48:11;43.15;;;20.85;;
65373;SDS011;52070;53.760;9.678;2023-04-15T06:50:38;43.42;;;21.10;;
65373;SDS011;52070;53.760;9.678;2023-04-15T06:53:07;44.90;;;20.90;;
65373;SDS011;52070;53.760;9.678;2023-04-15T06:55:34;45.30;;;21.75;;
65373;SDS011;52070;53.760;9.678;2023-04-15T06:58:01;47.40;;;22.50;;
65373;SDS011;52070;53.760;9.678;2023-04-15T07:00:28;46.10;;;21.00;;
65373;SDS011;52070;53.760;9.678;2023-04-15T07:02:55;46.92;;;22.02;;
65373;SDS011;52070;53.760;9.678;2023-04-15T07:05:22;51.22;;;23.27;;
65373;SDS011;52070;53.760;9.678;2023-04-15T07:07:49;56.13;;;24.55;;
65373;SDS011;52070;53.760;9.678;2023-04-15T07:10:19;52.95;;;23.77;;
65373;SDS011;52070;53.760;9.678;2023-04-15T07:12:46;52.83;;;24.15;;
65373;SDS011;52070;53.760;9.678;2023-04-15T07:15:13;62.25;;;26.00;;
65373;SDS011;52070;53.760;9.678;2023-04-15T07:17:41;53.58;;;25.63;;
65373;SDS011;52070;53.760;9.678;2023-04-15T07:20:08;57.95;;;26.30;;
65373;SDS011;52070;53.760;9.678;2023-04-15T07:22:35;61.50;;;26.80;;
65373;SDS011;52070;53.760;9.678;2023-04-15T07:25:02;61.78;;;26.77;;
65373;SDS011;52070;53.760;9.678;2023-04-15T07:27:31;66.07;;;27.38;;
65373;SDS011;52070;53.760;9.678;2023-04-15T07:29:58;60.22;;;27.00;;
65373;SDS011;52070;53.760;9.678;2023-04-15T07:32:25;58.88;;;26.85;;
65373;SDS011;52070;53.760;9.678;2023-04-15T07:34:52;56.88;;;26.65;;
65373;SDS011;52070;53.760;9.678;2023-04-15T07:37:19;61.28;;;28.15;;
65373;SDS011;52070;53.760;9.678;2023-04-15T07:39:46;62.53;;;27.95;;
65373;SDS011;52070;53.760;9.678;2023-04-15T07:42:13;56.03;;;27.00;;
65373;SDS011;52070;53.760;9.678;2023-04-15T07:44:42;69.07;;;29.10;;
65373;SDS011;52070;53.760;9.678;2023-04-15T07:47:08;63.20;;;28.38;;
65373;SDS011;52070;53.760;9.678;2023-04-15T07:49:36;67.70;;;31.23;;
65373;SDS011;52070;53.760;9.678;2023-04-15T07:52:03;65.72;;;29.70;;
65373;SDS011;52070;53.760;9.678;2023-04-15T07:54:30;59.85;;;28.70;;
65373;SDS011;52070;53.760;9.678;2023-04-15T07:56:57;61.13;;;29.05;;
65373;SDS011;52070;53.760;9.678;2023-04-15T07:59:24;55.85;;;28.77;;
65373;SDS011;52070;53.760;9.678;2023-04-15T08:01:53;59.88;;;27.92;;
65373;SDS011;52070;53.760;9.678;2023-04-15T08:04:20;61.08;;;29.42;;
65373;SDS011;52070;53.760;9.678;2023-04-15T08:06:47;61.60;;;28.60;;
65373;SDS011;52070;53.760;9.678;2023-04-15T08:09:14;69.10;;;29.48;;
65373;SDS011;52070;53.760;9.678;2023-04-15T08:11:41;72.43;;;30.55;;
65373;SDS011;52070;53.760;9.678;2023-04-15T08:14:08;60.83;;;29.17;;
65373;SDS011;52070;53.760;9.678;2023-04-15T08:16:36;70.70;;;30.70;;
65373;SDS011;52070;53.760;9.678;2023-04-15T08:19:04;61.38;;;29.65;;
65373;SDS011;52070;53.760;9.678;2023-04-15T08:21:31;68.93;;;29.67;;
65373;SDS011;52070;53.760;9.678;2023-04-15T08:23:58;59.85;;;29.67;;
65373;SDS011;52070;53.760;9.678;2023-04-15T08:26:26;70.07;;;30.60;;
65373;SDS011;52070;53.760;9.678;2023-04-15T08:28:53;66.95;;;30.63;;
65373;SDS011;52070;53.760;9.678;2023-04-15T08:31:20;65.45;;;30.42;;
65373;SDS011;52070;53.760;9.678;2023-04-15T08:33:47;68.07;;;31.88;;
65373;SDS011;52070;53.760;9.678;2023-04-15T08:36:18;72.80;;;32.13;;
65373;SDS011;52070;53.760;9.678;2023-04-15T08:38:45;63.00;;;30.45;;
65373;SDS011;52070;53.760;9.678;2023-04-15T08:41:16;60.35;;;28.92;;
65373;SDS011;52070;53.760;9.678;2023-04-15T08:43:48;59.72;;;29.48;;
65373;SDS011;52070;53.760;9.678;2023-04-15T08:46:19;60.45;;;30.15;;
65373;SDS011;52070;53.760;9.678;2023-04-15T08:48:47;62.25;;;28.63;;
65373;SDS011;52070;53.760;9.678;2023-04-15T08:51:15;54.50;;;28.13;;
65373;SDS011;52070;53.760;9.678;2023-04-15T08:53:44;56.20;;;28.90;;
65373;SDS011;52070;53.760;9.678;2023-04-15T08:56:12;59.95;;;28.38;;
65373;SDS011;52070;53.760;9.678;2023-04-15T08:58:41;58.78;;;28.30;;
65373;SDS011;52070;53.760;9.678;2023-04-15T09:01:10;65.93;;;29.30;;
65373;SDS011;52070;53.760;9.678;2023-04-15T09:03:38;57.33;;;28.05;;
65373;SDS011;52070;53.760;9.678;2023-04-15T09:06:05;55.30;;;27.95;;
65373;SDS011;52070;53.760;9.678;2023-04-15T09:08:34;57.55;;;29.52;;
65373;SDS011;52070;53.760;9.678;2023-04-15T09:11:01;53.95;;;28.35;;
65373;SDS011;52070;53.760;9.678;2023-04-15T09:13:28;61.83;;;28.70;;
65373;SDS011;52070;53.760;9.678;2023-04-15T09:15:55;58.78;;;29.10;;
65373;SDS011;52070;53.760;9.678;2023-04-15T09:18:26;60.60;;;28.05;;
65373;SDS011;52070;53.760;9.678;2023-04-15T09:20:54;60.08;;;27.63;;
65373;SDS011;52070;53.760;9.678;2023-04-15T09:23:21;54.60;;;28.33;;
65373;SDS011;52070;53.760;9.678;2023-04-15T09:25:50;57.08;;;27.30;;
65373;SDS011;52070;53.760;9.678;2023-04-15T09:28:22;56.60;;;27.63;;
65373;SDS011;52070;53.760;9.678;2023-04-15T09:30:50;58.72;;;26.58;;
65373;SDS011;52070;53.760;9.678;2023-04-15T09:33:18;57.88;;;27.67;;
65373;SDS011;52070;53.760;9.678;2023-04-15T09:35:54;53.97;;;27.23;;
65373;SDS011;52070;53.760;9.678;2023-04-15T09:38:22;51.28;;;27.33;;
65373;SDS011;52070;53.760;9.678;2023-04-15T09:40:50;52.38;;;25.80;;
65373;SDS011;52070;53.760;9.678;2023-04-15T09:43:17;55.53;;;26.58;;
65373;SDS011;52070;53.760;9.678;2023-04-15T09:45:49;51.20;;;25.98;;
65373;SDS011;52070;53.760;9.678;2023-04-15T09:48:17;47.95;;;24.67;;
65373;SDS011;52070;53.760;9.678;2023-04-15T09:50:46;50.45;;;26.10;;
65373;SDS011;52070;53.760;9.678;2023-04-15T09:53:15;44.78;;;24.85;;
65373;SDS011;52070;53.760;9.678;2023-04-15T09:55:44;47.00;;;25.75;;
65373;SDS011;52070;53.760;9.678;2023-04-15T09:58:19;51.42;;;25.48;;
65373;SDS011;52070;53.760;9.678;2023-04-15T10:00:48;49.58;;;24.63;;
65373;SDS011;52070;53.760;9.678;2023-04-15T10:03:18;42.45;;;24.25;;
65373;SDS011;52070;53.760;9.678;2023-04-15T10:05:47;42.75;;;24.35;;
65373;SDS011;52070;53.760;9.678;2023-04-15T10:08:17;45.25;;;24.65;;
65373;SDS011;52070;53.760;9.678;2023-04-15T10:10:45;43.65;;;23.65;;
65373;SDS011;52070;53.760;9.678;2023-04-15T10:13:13;41.10;;;23.33;;
65373;SDS011;52070;53.760;9.678;2023-04-15T10:15:44;49.55;;;25.63;;
65373;SDS011;52070;53.760;9.678;2023-04-15T10:18:16;42.72;;;23.70;;
65373;SDS011;52070;53.760;9.678;2023-04-15T10:20:46;48.10;;;23.40;;
65373;SDS011;52070;53.760;9.678;2023-04-15T10:23:14;39.30;;;23.23;;
65373;SDS011;52070;53.760;9.678;2023-04-15T10:25:42;42.88;;;22.70;;
65373;SDS011;52070;53.760;9.678;2023-04-15T10:28:09;36.53;;;21.15;;
65373;SDS011;52070;53.760;9.678;2023-04-15T10:30:36;42.33;;;21.88;;
65373;SDS011;52070;53.760;9.678;2023-04-15T10:33:05;40.33;;;21.27;;
65373;SDS011;52070;53.760;9.678;2023-04-15T10:35:34;36.88;;;20.20;;
65373;SDS011;52070;53.760;9.678;2023-04-15T10:38:02;34.30;;;20.65;;
65373;SDS011;52070;53.760;9.678;2023-04-15T10:41:07;34.42;;;19.80;;
65373;SDS011;52070;53.760;9.678;2023-04-15T10:43:38;37.88;;;21.58;;
65373;SDS011;52070;53.760;9.678;2023-04-15T10:46:05;38.33;;;20.23;;
65373;SDS011;52070;53.760;9.678;2023-04-15T10:48:34;36.47;;;20.55;;
65373;SDS011;52070;53.760;9.678;2023-04-15T10:51:01;37.47;;;19.92;;
65373;SDS011;52070;53.760;9.678;2023-04-15T10:53:29;35.03;;;21.55;;
65373;SDS011;52070;53.760;9.678;2023-04-15T10:55:57;32.65;;;20.00;;
65373;SDS011;52070;53.760;9.678;2023-04-15T10:58:24;32.53;;;19.02;;
65373;SDS011;52070;53.760;9.678;2023-04-15T11:00:52;32.45;;;18.75;;
65373;SDS011;52070;53.760;9.678;2023-04-15T11:03:34;32.13;;;18.35;;
65373;SDS011;52070;53.760;9.678;2023-04-15T11:06:03;32.90;;;18.90;;
65373;SDS011;52070;53.760;9.678;2023-04-15T11:11:25;35.70;;;18.35;;
65373;SDS011;52070;53.760;9.678;2023-04-15T11:14:31;28.50;;;17.63;;
65373;SDS011;52070;53.760;9.678;2023-04-15T11:16:58;28.45;;;17.98;;
65373;SDS011;52070;53.760;9.678;2023-04-15T11:19:27;28.67;;;17.00;;
65373;SDS011;52070;53.760;9.678;2023-04-15T11:22:05;27.92;;;16.83;;
65373;SDS011;52070;53.760;9.678;2023-04-15T11:24:32;25.48;;;16.13;;
65373;SDS011;52070;53.760;9.678;2023-04-15T11:27:00;26.45;;;16.98;;
65373;SDS011;52070;53.760;9.678;2023-04-15T11:29:28;30.35;;;16.60;;
65373;SDS011;52070;53.760;9.678;2023-04-15T11:32:03;30.40;;;16.35;;
65373;SDS011;52070;53.760;9.678;2023-04-15T11:34:32;26.48;;;15.68;;
65373;SDS011;52070;53.760;9.678;2023-04-15T11:37:02;28.38;;;14.63;;
65373;SDS011;52070;53.760;9.678;2023-04-15T11:39:29;25.97;;;14.87;;
65373;SDS011;52070;53.760;9.678;2023-04-15T11:41:56;20.80;;;13.95;;
65373;SDS011;52070;53.760;9.678;2023-04-15T11:44:23;21.80;;;14.18;;
65373;SDS011;52070;53.760;9.678;2023-04-15T11:46:50;22.65;;;13.85;;
65373;SDS011;52070;53.760;9.678;2023-04-15T11:49:27;22.60;;;13.82;;
65373;SDS011;52070;53.760;9.678;2023-04-15T11:51:56;23.63;;;14.02;;
65373;SDS011;52070;53.760;9.678;2023-04-15T11:54:23;22.60;;;13.68;;
65373;SDS011;52070;53.760;9.678;2023-04-15T11:56:50;25.10;;;14.73;;
65373;SDS011;52070;53.760;9.678;2023-04-15T11:59:19;24.67;;;14.45;;
65373;SDS011;52070;53.760;9.678;2023-04-15T12:01:46;23.70;;;14.45;;
65373;SDS011;52070;53.760;9.678;2023-04-15T12:04:13;21.52;;;14.27;;
65373;SDS011;52070;53.760;9.678;2023-04-15T12:06:43;19.83;;;13.00;;
65373;SDS011;52070;53.760;9.678;2023-04-15T12:09:15;18.80;;;12.88;;
65373;SDS011;52070;53.760;9.678;2023-04-15T12:11:43;21.20;;;13.43;;
65373;SDS011;52070;53.760;9.678;2023-04-15T12:14:12;18.63;;;12.63;;
65373;SDS011;52070;53.760;9.678;2023-04-15T12:16:45;18.02;;;11.88;;
65373;SDS011;52070;53.760;9.678;2023-04-15T12:19:13;20.55;;;12.52;;
65373;SDS011;52070;53.760;9.678;2023-04-15T12:21:43;15.27;;;10.73;;
65373;SDS011;52070;53.760;9.678;2023-04-15T12:24:11;13.68;;;9.32;;
65373;SDS011;52070;53.760;9.678;2023-04-15T12:26:44;15.23;;;9.38;;
65373;SDS011;52070;53.760;9.678;2023-04-15T12:29:12;13.65;;;9.25;;
65373;SDS011;52070;53.760;9.678;2023-04-15T12:31:48;14.70;;;9.90;;
65373;SDS011;52070;53.760;9.678;2023-04-15T12:34:17;13.88;;;9.13;;
65373;SDS011;52070;53.760;9.678;2023-04-15T12:36:51;12.82;;;8.18;;
65373;SDS011;52070;53.760;9.678;2023-04-15T12:39:20;14.05;;;7.53;;
65373;SDS011;52070;53.760;9.678;2023-04-15T12:41:49;9.07;;;6.88;;
65373;SDS011;52070;53.760;9.678;2023-04-15T12:44:16;11.63;;;7.30;;
65373;SDS011;52070;53.760;9.678;2023-04-15T12:46:44;9.00;;;5.97;;
65373;SDS011;52070;53.760;9.678;2023-04-15T12:49:11;9.85;;;6.00;;
65373;SDS011;52070;53.760;9.678;2023-04-15T12:51:40;7.47;;;6.07;;
65373;SDS011;52070;53.760;9.678;2023-04-15T12:54:07;9.27;;;6.45;;
65373;SDS011;52070;53.760;9.678;2023-04-15T12:56:34;7.75;;;6.20;;
65373;SDS011;52070;53.760;9.678;2023-04-15T12:59:02;8.13;;;5.97;;
65373;SDS011;52070;53.760;9.678;2023-04-15T13:01:29;9.48;;;6.88;;
65373;SDS011;52070;53.760;9.678;2023-04-15T13:03:56;10.25;;;6.18;;
65373;SDS011;52070;53.760;9.678;2023-04-15T13:06:23;9.07;;;6.63;;
65373;SDS011;52070;53.760;9.678;2023-04-15T13:08:50;8.63;;;6.45;;
65373;SDS011;52070;53.760;9.678;2023-04-15T13:11:19;9.90;;;6.55;;
65373;SDS011;52070;53.760;9.678;2023-04-15T13:13:46;10.13;;;6.80;;
65373;SDS011;52070;53.760;9.678;2023-04-15T13:16:15;10.80;;;6.95;;
65373;SDS011;52070;53.760;9.678;2023-04-15T13:18:41;9.93;;;6.95;;
65373;SDS011;52070;53.760;9.678;2023-04-15T13:21:10;11.60;;;7.30;;
65373;SDS011;52070;53.760;9.678;2023-04-15T13:23:38;10.70;;;7.55;;
65373;SDS011;52070;53.760;9.678;2023-04-15T13:26:05;12.73;;;7.20;;
65373;SDS011;52070;53.760;9.678;2023-04-15T13:28:32;12.07;;;7.43;;
65373;SDS011;52070;53.760;9.678;2023-04-15T13:30:58;15.40;;;7.95;;
65373;SDS011;52070;53.760;9.678;2023-04-15T13:33:27;12.30;;;7.75;;
65373;SDS011;52070;53.760;9.678;2023-04-15T13:35:54;12.18;;;7.82;;
65373;SDS011;52070;53.760;9.678;2023-04-15T13:38:23;13.00;;;7.43;;
65373;SDS011;52070;53.760;9.678;2023-04-15T13:40:51;12.02;;;7.82;;
65373;SDS011;52070;53.760;9.678;2023-04-15T13:43:18;14.70;;;7.97;;
65373;SDS011;52070;53.760;9.678;2023-04-15T13:45:46;14.88;;;8.10;;
65373;SDS011;52070;53.760;9.678;2023-04-15T13:48:13;10.55;;;7.53;;
65373;SDS011;52070;53.760;9.678;2023-04-15T13:50:41;11.60;;;8.13;;
65373;SDS011;52070;53.760;9.678;2023-04-15T13:53:09;13.05;;;8.55;;
65373;SDS011;52070;53.760;9.678;2023-04-15T13:55:37;14.73;;;8.70;;
65373;SDS011;52070;53.760;9.678;2023-04-15T13:58:06;14.85;;;8.65;;
65373;SDS011;52070;53.760;9.678;2023-04-15T14:00:33;11.80;;;8.25;;
65373;SDS011;52070;53.760;9.678;2023-04-15T14:03:00;13.82;;;8.45;;
65373;SDS011;52070;53.760;9.678;2023-04-15T14:05:27;12.50;;;9.00;;
65373;SDS011;52070;53.760;9.678;2023-04-15T14:07:55;16.35;;;9.77;;
65373;SDS011;52070;53.760;9.678;2023-04-15T14:10:22;15.77;;;9.25;;
65373;SDS011;52070;53.760;9.678;2023-04-15T14:12:49;14.07;;;8.45;;
65373;SDS011;52070;53.760;9.678;2023-04-15T14:15:16;15.27;;;9.05;;
65373;SDS011;52070;53.760;9.678;2023-04-15T14:17:43;13.10;;;8.80;;
65373;SDS011;52070;53.760;9.678;2023-04-15T14:20:10;12.32;;;8.18;;
65373;SDS011;52070;53.760;9.678;2023-04-15T14:22:37;10.55;;;7.78;;
65373;SDS011;52070;53.760;9.678;2023-04-15T14:25:06;12.40;;;7.75;;
65373;SDS011;52070;53.760;9.678;2023-04-15T14:27:33;13.93;;;8.73;;
65373;SDS011;52070;53.760;9.678;2023-04-15T14:30:00;13.07;;;9.20;;
65373;SDS011;52070;53.760;9.678;2023-04-15T14:32:27;14.52;;;9.75;;
65373;SDS011;52070;53.760;9.678;2023-04-15T14:34:54;14.15;;;9.55;;
65373;SDS011;52070;53.760;9.678;2023-04-15T14:37:21;16.02;;;10.05;;